createdAt,value
2019-02-10T00:00:54.000Z,6.59
2019-02-10T00:06:01.054Z,5.93
2019-02-10T00:11:11.567Z,6.12
2019-02-10T00:16:09.855Z,6.58
2019-02-10T00:21:21.343Z,5.96
2019-02-10T00:26:15.602Z,6.64
2019-02-10T00:31:25.129Z,6.31
2019-02-10T00:36:23.946Z,6.22
2019-02-10T00:41:28.773Z,4.68
2019-02-10T00:46:31.194Z,6.13
2019-02-10T00:51:34.698Z,5.07
2019-02-10T00:56:35.440Z,5.40
2019-02-10T01:01:54.382Z,5.44
2019-02-10T01:06:44.766Z,5.48
2019-02-10T01:11:46.373Z,5.16
2019-02-10T01:16:46.269Z,6.71
2019-02-10T01:22:01.614Z,10.23
2019-02-10T01:27:04.322Z,9.02
2019-02-10T01:32:04.637Z,8.59
2019-02-10T01:37:05.975Z,7.59
2019-02-10T01:42:13.679Z,6.01
2019-02-10T01:47:16.346Z,6.54
2019-02-10T01:52:17.538Z,5.68
2019-02-10T01:57:18.936Z,5.97
2019-02-10T02:02:17.301Z,4.58
2019-02-10T02:07:27.070Z,4.33
2019-02-10T02:12:45.760Z,5.27
2019-02-10T02:17:43.808Z,3.86
2019-02-10T02:22:54.380Z,4.77
2019-02-10T02:27:53.986Z,5.45
2019-02-10T02:33:10.575Z,5.09
2019-02-10T02:38:09.453Z,5.02
2019-02-10T02:43:13.529Z,4.79
2019-02-10T02:48:13.690Z,4.59
2019-02-10T02:53:12.248Z,4.95
2019-02-10T02:58:21.126Z,4.81
2019-02-10T03:03:40.772Z,4.85
2019-02-10T03:08:41.187Z,4.39
2019-02-10T03:13:41.048Z,4.86
2019-02-10T03:18:53.357Z,4.23
2019-02-10T03:23:53.822Z,4.63
2019-02-10T03:28:54.042Z,4.52
2019-02-10T03:33:58.343Z,4.16
2019-02-10T03:38:58.400Z,4.42
2019-02-10T03:44:01.252Z,4.15
2019-02-10T03:49:05.812Z,4.43
2019-02-10T03:54:09.534Z,4.69
2019-02-10T03:59:13.100Z,4.36
2019-02-10T04:04:16.648Z,4.75
2019-02-10T04:09:20.199Z,4.27
2019-02-10T04:14:30.951Z,4.23
2019-02-10T04:19:29.914Z,4.41
2019-02-10T04:24:46.703Z,3.93
2019-02-10T04:29:46.147Z,3.94
2019-02-10T04:34:59.487Z,4.14
2019-02-10T04:40:03.091Z,3.50
2019-02-10T04:45:02.795Z,3.63
2019-02-10T04:50:04.063Z,3.53
2019-02-10T04:55:05.503Z,3.90
2019-02-10T05:00:23.655Z,3.58
2019-02-10T05:05:18.015Z,3.96
2019-02-10T05:10:28.665Z,3.89
2019-02-10T05:15:36.128Z,3.44
2019-02-10T05:20:47.011Z,3.48
2019-02-10T05:25:58.466Z,3.50
2019-02-10T05:30:54.025Z,3.68
2019-02-10T05:36:10.704Z,3.03
2019-02-10T05:41:13.660Z,3.34
2019-02-10T05:46:19.085Z,3.01
2019-02-10T05:51:19.853Z,3.16
2019-02-10T05:56:27.946Z,3.09
2019-02-10T06:01:26.337Z,2.76
2019-02-10T06:06:40.893Z,2.81
2019-02-10T06:11:35.506Z,3.16
2019-02-10T06:16:48.197Z,2.91
2019-02-10T06:21:47.228Z,2.72
2019-02-10T06:26:42.921Z,3.08
2019-02-10T06:31:54.501Z,2.80
2019-02-10T06:36:46.492Z,3.46
2019-02-10T06:41:47.491Z,3.24
2019-02-10T06:46:50.076Z,3.26
2019-02-10T06:51:51.869Z,3.22
2019-02-10T06:56:57.820Z,3.74
2019-02-10T07:02:00.429Z,3.48
2019-02-10T07:07:04.168Z,3.84
2019-02-10T07:17:04.265Z,4.02
2019-02-10T07:22:04.501Z,3.36
2019-02-10T07:27:07.474Z,3.19
2019-02-10T07:32:09.060Z,3.60
2019-02-10T07:37:12.149Z,3.54
2019-02-10T07:42:19.886Z,3.61
2019-02-10T07:47:19.691Z,3.31
2019-02-10T07:52:22.464Z,3.26
2019-02-10T07:57:24.867Z,3.42
2019-02-10T08:02:26.527Z,4.07
2019-02-10T08:07:31.188Z,3.76
2019-02-10T08:12:38.979Z,3.40
2019-02-10T08:27:51.808Z,3.79
2019-02-10T08:32:58.677Z,4.09
2019-02-10T08:37:59.063Z,4.37
2019-02-10T08:42:59.920Z,4.66
2019-02-10T08:48:02.297Z,4.92
2019-02-10T08:53:03.136Z,4.61
2019-02-10T08:58:04.555Z,4.36
2019-02-10T09:03:10.760Z,4.97
2019-02-10T09:08:15.585Z,5.04
2019-02-10T09:13:29.935Z,4.67
2019-02-10T09:18:28.038Z,4.58
2019-02-10T09:23:34.945Z,4.12
2019-02-10T09:28:34.198Z,3.47
2019-02-10T09:33:37.677Z,3.08
2019-02-10T09:38:44.897Z,3.34
2019-02-10T09:43:48.631Z,3.27
2019-02-10T09:48:48.802Z,3.32
2019-02-10T09:53:51.102Z,4.17
2019-02-10T09:58:53.661Z,3.75
2019-02-10T10:03:55.858Z,4.03
2019-02-10T10:08:56.240Z,3.36
2019-02-10T10:13:55.390Z,3.04
2019-02-10T10:19:05.172Z,3.13
2019-02-10T10:24:17.617Z,3.07
2019-02-10T10:29:24.211Z,3.22
2019-02-10T10:34:40.097Z,3.15
2019-02-10T10:39:29.022Z,3.38
2019-02-10T10:44:47.813Z,3.43
2019-02-10T10:49:46.454Z,3.75
2019-02-10T10:54:55.468Z,4.35
2019-02-10T11:00:09.037Z,4.21
2019-02-10T11:05:14.790Z,4.48
2019-02-10T11:10:25.045Z,4.34
2019-02-10T11:15:24.827Z,4.28
2019-02-10T11:20:38.372Z,4.07
2019-02-10T11:25:39.675Z,3.52
2019-02-10T11:30:41.768Z,3.61
2019-02-10T11:35:46.193Z,3.72
2019-02-10T11:40:50.085Z,3.43
2019-02-10T11:45:49.927Z,3.74
2019-02-10T11:51:00.427Z,3.58
2019-02-10T11:56:09.783Z,3.69
2019-02-10T12:01:12.662Z,3.39
2019-02-10T12:11:22.101Z,4.50
2019-02-10T12:21:34.809Z,4.84
2019-02-10T12:31:43.811Z,4.26
2019-02-10T12:41:40.200Z,4.29
2019-02-10T12:51:52.987Z,4.94
2019-02-10T12:56:58.031Z,4.36
2019-02-10T13:01:58.604Z,4.68
2019-02-10T13:07:09.769Z,4.19
2019-02-10T13:12:06.463Z,3.39
2019-02-10T13:22:07.642Z,4.14
2019-02-10T13:27:09.529Z,4.92
2019-02-10T13:32:09.317Z,3.50
2019-02-10T13:37:22.547Z,3.85
2019-02-10T13:42:25.632Z,7.33
2019-02-10T13:47:42.341Z,3.16
2019-02-10T13:52:37.255Z,3.09
2019-02-10T13:57:36.935Z,3.14
2019-02-10T14:02:39.879Z,3.03
2019-02-10T14:07:41.119Z,2.84
2019-02-10T14:12:44.165Z,2.49
2019-02-10T14:17:45.766Z,2.59
2019-02-10T14:22:47.124Z,2.97
2019-02-10T14:27:47.706Z,3.05
2019-02-10T14:32:56.105Z,5.21
2019-02-10T14:37:55.086Z,3.01
2019-02-10T14:43:05.272Z,3.00
2019-02-10T14:48:06.720Z,3.10
2019-02-10T14:53:08.691Z,2.30
2019-02-10T14:58:08.881Z,3.39
2019-02-10T15:33:36.718Z,4.52
2019-02-10T15:38:37.462Z,4.58
2019-02-10T15:43:44.651Z,4.92
2019-02-10T15:53:48.654Z,5.81
2019-02-10T15:58:57.342Z,6.11
2019-02-10T16:04:00.631Z,5.64
2019-02-10T16:09:00.741Z,4.29
2019-02-10T16:19:06.256Z,4.39
2019-02-10T16:29:10.271Z,5.25
2019-02-10T16:34:10.223Z,4.25
2019-02-10T16:39:19.911Z,4.14
2019-02-10T16:44:30.476Z,4.11
2019-02-10T16:49:20.542Z,5.89
2019-02-10T16:54:31.020Z,4.65
2019-02-10T16:59:21.660Z,4.87
2019-02-10T17:04:29.869Z,4.89
2019-02-10T17:09:30.780Z,8.58
2019-02-10T17:14:42.581Z,4.16
2019-02-10T17:19:36.382Z,4.59
2019-02-10T17:24:37.548Z,4.19
2019-02-10T17:29:43.136Z,3.89
2019-02-10T17:34:46.428Z,6.41
2019-02-10T17:39:50.219Z,4.12
2019-02-10T17:44:50.535Z,4.39
2019-02-10T17:49:53.991Z,3.20
2019-02-10T17:54:54.513Z,3.46
2019-02-10T18:00:03.884Z,3.95
2019-02-10T18:05:08.696Z,3.49
2019-02-10T18:10:19.470Z,3.35
2019-02-10T18:15:15.623Z,3.80
2019-02-10T18:20:31.547Z,4.50
2019-02-10T18:25:33.551Z,4.42
2019-02-10T18:30:48.208Z,5.03
2019-02-10T18:35:38.420Z,4.36
2019-02-10T18:40:45.994Z,3.10
2019-02-10T18:45:46.494Z,3.71
2019-02-10T18:50:49.972Z,3.09
2019-02-10T18:55:50.013Z,3.81
2019-02-10T19:00:50.891Z,3.53
2019-02-10T19:05:50.685Z,3.27
2019-02-10T19:11:01.906Z,3.17
2019-02-10T19:15:59.296Z,3.48
2019-02-10T19:21:06.885Z,3.60
2019-02-10T19:26:08.758Z,3.45
2019-02-10T19:31:12.575Z,3.76
2019-02-10T19:36:14.142Z,3.33
2019-02-10T19:41:17.596Z,3.19
2019-02-10T19:46:16.734Z,3.45
2019-02-10T19:51:27.502Z,3.44
2019-02-10T19:56:37.637Z,3.13
2019-02-10T20:01:36.323Z,3.15
2019-02-10T20:06:40.006Z,3.34
2019-02-10T20:11:53.639Z,4.96
2019-02-10T20:16:43.109Z,4.04
2019-02-10T20:21:52.891Z,3.48
2019-02-10T20:27:07.974Z,2.61
2019-02-10T20:32:13.042Z,2.98
2019-02-10T20:37:16.177Z,3.41
2019-02-10T20:42:12.913Z,2.94
2019-02-10T20:47:15.438Z,3.08
2019-02-10T20:52:18.817Z,5.53
2019-02-10T20:57:26.206Z,2.64
2019-02-10T21:02:28.043Z,3.00
2019-02-10T21:12:42.420Z,3.22
2019-02-10T21:17:45.554Z,3.77
2019-02-10T21:22:47.697Z,3.23
2019-02-10T21:27:47.934Z,3.55
2019-02-10T21:33:07.029Z,3.24
2019-02-10T21:37:59.091Z,3.04
2019-02-10T21:43:06.111Z,3.24
2019-02-10T21:48:14.706Z,2.92
2019-02-10T21:53:21.470Z,3.68
2019-02-10T21:58:23.227Z,4.11
2019-02-10T22:03:29.058Z,4.77
2019-02-10T22:08:31.528Z,3.58
2019-02-10T22:13:44.296Z,3.80
2019-02-10T22:18:35.903Z,3.58
2019-02-10T22:23:45.837Z,4.08
2019-02-10T22:28:50.300Z,7.47
2019-02-10T22:33:54.395Z,4.15
2019-02-10T22:39:05.229Z,4.10
2019-02-10T22:44:01.269Z,4.22
2019-02-10T22:49:04.923Z,4.03
2019-02-10T22:54:08.138Z,3.81
2019-02-10T22:59:08.667Z,3.82
2019-02-10T23:04:12.172Z,6.44
2019-02-10T23:09:22.652Z,4.49
2019-02-10T23:14:12.939Z,4.30
2019-02-10T23:19:13.574Z,4.21
2019-02-10T23:24:14.262Z,4.18
2019-02-10T23:29:24.665Z,4.60
2019-02-10T23:34:36.163Z,4.58
2019-02-10T23:39:27.485Z,4.34
2019-02-10T23:44:35.647Z,4.30
2019-02-10T23:49:38.674Z,4.34
2019-02-10T23:54:44.986Z,4.01
2019-02-10T23:59:45.948Z,4.45
